Shawnee, OK

1:00 PM CST on December 06, 2016 (GMT -0600)
Shawnee Municipal

Weather History for KSNL - December, 2012

Change the Weather History Date:

Monday, December 10, 2012

  Actual Average (KOKC) Record (KOKC)
Temperature  
Mean Temperature 32 °F 41 °F  
Max Temperature 39 °F 51 °F 75 °F (1996)
Min Temperature 24 °F 31 °F 3 °F (1919)
Degree Days  
Heating Degree Days 34 24  
Month to date heating degree days 224  
Since 1 July heating degree days 823  
Moisture  
Dew Point 16 °F    
Average Humidity 53    
Maximum Humidity 75    
Minimum Humidity 36    
Precipitation  
Precipitation 0.00 in 0.07 in 1.18 in (2007)
Month to date precipitation 0.65  
Year to date precipitation 35.29  
Snow  
Snow 0.00 in 0.10 in 2.50 in (1960)
Month to date snowfall 0.5  
Since 1 July snowfall 0.9  
Snow Depth -    
Sea Level Pressure  
Sea Level Pressure 30.13 in    
Wind  
Wind Speed 12 mph (NW)    
Max Wind Speed 24 mph    
Max Gust Speed 29 mph    
Visibility 10 miles    
Events Snow    
T = Trace of Precipitation, MM = Missing Value Source: NWS Daily Summary

Daily Weather History Graph

Daily Weather History Graph

Search for Another Location

Airport or City:

Trip Planner

Search our weather history database for the weather conditions in past years. The results will help you decide how hot, cold, wet, or windy it might be!

Date:

Astronomy

Dec. 10, 2012 Rise Set
Actual Time 7:26 AM CST 5:15 PM CST
Civil Twilight 6:57 AM CST 5:43 PM CST
Nautical Twilight 6:26 AM CST 6:15 PM CST
Astronomical Twilight 5:55 AM CST 6:46 PM CST
Moon 4:15 AM CST (12/10) 3:02 PM CST (12/10)
Length of Visible Light 10h 45m
Length of Day
9h 49m
Waning Crescent, 10% of the Moon is Illuminated
Dec 10
Waning Crescent
Dec 13
New
Dec 19
First Quarter
Dec 28
Full
Jan 4
Last Quarter

Hourly Weather History & Observations

Time (CST) Temp. Windchill Dew Point Humidity Pressure Visibility Wind Dir Wind Speed Gust Speed Precip Events Conditions
12:15 AM 32.0 °F 23.0 °F 17.6 °F 55% 30.13 in 10.0 mi NNW 11.5 mph - N/A   Clear
12:35 AM 32.0 °F 24.2 °F 17.6 °F 55% 30.12 in 10.0 mi North 9.2 mph - N/A   Clear
12:55 AM 32.0 °F 22.1 °F 17.6 °F 55% 30.12 in 10.0 mi North 13.8 mph 17.3 mph N/A   Scattered Clouds
1:15 AM 32.0 °F 18.9 °F 17.6 °F 55% 30.13 in 10.0 mi NNW 24.2 mph - N/A   Scattered Clouds
1:35 AM 32.0 °F 19.2 °F 17.6 °F 55% 30.12 in 10.0 mi North 23.0 mph 26.5 mph N/A   Scattered Clouds
1:55 AM 32.0 °F 21.2 °F 17.6 °F 55% 30.13 in 10.0 mi NNW 16.1 mph 20.7 mph N/A   Clear
2:15 AM 32.0 °F 19.5 °F 17.6 °F 55% 30.14 in 10.0 mi NNW 21.9 mph 28.8 mph N/A   Scattered Clouds
2:35 AM 32.0 °F 20.8 °F 17.6 °F 55% 30.14 in 10.0 mi NNW 17.3 mph 25.3 mph N/A Snow Light Snow
2:55 AM 32.0 °F 19.5 °F 23.0 °F 69% 30.14 in 4.0 mi NNW 21.9 mph 25.3 mph N/A Snow Light Snow
3:15 AM 30.2 °F 18.5 °F 23.0 °F 75% 30.13 in 7.0 mi North 17.3 mph 21.9 mph N/A Snow Light Snow
3:35 AM 32.0 °F 21.2 °F 21.2 °F 64% 30.14 in 10.0 mi NNW 16.1 mph 19.6 mph N/A   Scattered Clouds
3:55 AM 30.2 °F 17.8 °F 19.4 °F 64% 30.14 in 10.0 mi NNW 19.6 mph - N/A   Clear
4:15 AM 30.2 °F 19.3 °F 19.4 °F 64% 30.14 in 10.0 mi NNW 15.0 mph 24.2 mph N/A   Clear
4:35 AM 28.4 °F 15.4 °F 17.6 °F 64% 30.14 in 10.0 mi NNW 19.6 mph 24.2 mph N/A   Clear
4:55 AM 28.4 °F 15.8 °F 17.6 °F 64% 30.14 in 10.0 mi NNW 18.4 mph 25.3 mph N/A   Clear
5:15 AM 28.4 °F 17.0 °F 17.6 °F 64% 30.14 in 10.0 mi NNW 15.0 mph 25.3 mph N/A   Clear
5:35 AM 30.2 °F 17.8 °F 17.6 °F 60% 30.15 in 10.0 mi NNW 19.6 mph 23.0 mph N/A   Clear
5:55 AM 28.4 °F 16.2 °F 17.6 °F 64% 30.16 in 10.0 mi NNW 17.3 mph 23.0 mph N/A   Clear
6:15 AM 26.6 °F 13.4 °F 17.6 °F 69% 30.16 in 10.0 mi North 18.4 mph - N/A   Clear
6:35 AM 26.6 °F 14.3 °F 17.6 °F 69% 30.16 in 10.0 mi NNW 16.1 mph 20.7 mph N/A   Clear
6:55 AM 26.6 °F 14.7 °F 15.8 °F 64% 30.16 in 10.0 mi North 15.0 mph 25.3 mph N/A   Clear
7:15 AM 24.8 °F 14.6 °F 15.8 °F 69% 30.18 in 10.0 mi NNW 10.4 mph - N/A   Clear
7:35 AM 24.8 °F 12.9 °F 15.8 °F 69% 30.18 in 10.0 mi NNW 13.8 mph 18.4 mph N/A   Clear
7:55 AM 24.8 °F 13.4 °F 14.0 °F 64% 30.18 in 10.0 mi North 12.7 mph - N/A   Clear
8:35 AM 26.6 °F 15.2 °F 14.0 °F 59% 30.20 in 10.0 mi NW 13.8 mph - N/A   Clear
8:55 AM 26.6 °F 16.2 °F 14.0 °F 59% 30.19 in 10.0 mi NNW 11.5 mph - N/A   Clear
9:15 AM 26.6 °F 15.2 °F 14.0 °F 59% 30.18 in 10.0 mi NNW 13.8 mph 17.3 mph N/A   Clear
9:35 AM 28.4 °F 18.5 °F 14.0 °F 55% 30.19 in 10.0 mi NNW 11.5 mph - N/A   Clear
9:55 AM 30.2 °F 22.6 °F 14.0 °F 51% 30.19 in 10.0 mi WNW 8.1 mph 16.1 mph N/A   Clear
10:15 AM 30.2 °F 20.8 °F 14.0 °F 51% 30.20 in 10.0 mi NW 11.5 mph - N/A   Clear
10:35 AM 32.0 °F 23.0 °F 17.6 °F 55% 30.19 in 10.0 mi NNW 11.5 mph - N/A   Clear
11:15 AM 32.0 °F 22.5 °F 15.8 °F 51% 30.18 in 10.0 mi NNW 12.7 mph - N/A   Clear
11:35 AM 32.0 °F 23.0 °F 17.6 °F 55% 30.17 in 10.0 mi NNW 11.5 mph - N/A   Clear
11:55 AM 33.8 °F 25.8 °F 17.6 °F 52% 30.17 in 10.0 mi NNW 10.4 mph - N/A   Clear
12:15 PM 33.8 °F 25.3 °F 17.6 °F 52% 30.16 in 10.0 mi NW 11.5 mph 20.7 mph N/A   Clear
12:35 PM 35.6 °F 28.6 °F 17.6 °F 48% 30.15 in 10.0 mi NW 9.2 mph - N/A   Clear
12:55 PM 35.6 °F 28.6 °F 17.6 °F 48% 30.13 in 10.0 mi WNW 9.2 mph - N/A   Clear
1:15 PM 35.6 °F 28.0 °F 17.6 °F 48% 30.12 in 10.0 mi NW 10.4 mph - N/A   Clear
1:35 PM 37.4 °F 31.4 °F 17.6 °F 45% 30.12 in 10.0 mi North 8.1 mph - N/A   Clear
1:55 PM 37.4 °F 30.8 °F 17.6 °F 45% 30.10 in 10.0 mi NW 9.2 mph 16.1 mph N/A   Clear
2:15 PM 37.4 °F 32.8 °F 15.8 °F 41% 30.09 in 10.0 mi NNW 5.8 mph - N/A   Clear
3:15 PM 39.2 °F 33.6 °F 14.0 °F 36% 30.09 in 10.0 mi WNW 8.1 mph - N/A   Clear
3:35 PM 39.2 °F 34.2 °F 14.0 °F 36% 30.09 in 10.0 mi NW 6.9 mph - N/A   Clear
3:55 PM 37.4 °F 32.8 °F 14.0 °F 38% 30.08 in 10.0 mi WNW 5.8 mph - N/A   Clear
4:15 PM 37.4 °F 32.8 °F 14.0 °F 38% 30.09 in 10.0 mi NW 5.8 mph - N/A   Clear
4:35 PM 37.4 °F 32.8 °F 14.0 °F 38% 30.09 in 10.0 mi West 5.8 mph - N/A   Clear
4:55 PM 37.4 °F 33.8 °F 14.0 °F 38% 30.09 in 10.0 mi WNW 4.6 mph - N/A   Clear
5:15 PM 35.6 °F 31.7 °F 14.0 °F 41% 30.10 in 10.0 mi WNW 4.6 mph - N/A   Clear
5:35 PM 35.6 °F 32.8 °F 14.0 °F 41% 30.10 in 10.0 mi WNW 3.5 mph - N/A   Clear
5:55 PM 33.8 °F - 12.2 °F 41% 30.09 in 10.0 mi Calm Calm - N/A   Clear
6:15 PM 33.8 °F - 14.0 °F 44% 30.10 in 10.0 mi Calm Calm - N/A   Clear
6:35 PM 32.0 °F 27.5 °F 12.2 °F 44% 30.10 in 10.0 mi NW 4.6 mph - N/A   Clear
6:55 PM 32.0 °F - 12.2 °F 44% 30.09 in 10.0 mi Calm Calm - N/A   Clear
7:15 PM 32.0 °F - 12.2 °F 44% 30.10 in 10.0 mi Calm Calm - N/A   Clear
7:35 PM 32.0 °F 28.7 °F 14.0 °F 48% 30.09 in 10.0 mi SSW 3.5 mph - N/A   Clear
7:55 PM 30.2 °F - 14.0 °F 51% 30.10 in 10.0 mi Calm Calm - N/A   Clear
8:15 PM 30.2 °F - 14.0 °F 51% 30.09 in 10.0 mi Calm Calm - N/A   Clear
8:35 PM 30.2 °F - 12.2 °F 47% 30.09 in 10.0 mi Calm Calm - N/A   Clear
8:55 PM 32.0 °F - 14.0 °F 48% 30.09 in 10.0 mi Calm Calm - N/A   Clear
9:15 PM 30.2 °F - 14.0 °F 51% 30.10 in 10.0 mi Calm Calm - N/A   Clear
9:35 PM 30.2 °F - 14.0 °F 51% 30.10 in 10.0 mi Calm Calm - N/A   Clear
9:55 PM 30.2 °F - 14.0 °F 51% 30.12 in 10.0 mi Calm Calm - N/A   Clear
10:15 PM 30.2 °F - 12.2 °F 47% 30.12 in 10.0 mi Calm Calm - N/A   Clear
10:35 PM 32.0 °F 28.7 °F 14.0 °F 48% 30.11 in 10.0 mi SSE 3.5 mph - N/A   Clear
10:55 PM 28.4 °F 22.2 °F 14.0 °F 55% 30.11 in 10.0 mi SSE 5.8 mph - N/A   Clear
11:35 PM 30.2 °F 26.7 °F 15.8 °F 55% 30.12 in 10.0 mi SSE 3.5 mph - N/A   Clear
11:55 PM 28.4 °F 22.2 °F 14.0 °F 55% 30.11 in 10.0 mi South 5.8 mph - N/A   Clear